createdAt,value
2022-12-03T00:01:17.077Z,101371.69
2022-12-03T00:03:43.809Z,101391.03
2022-12-03T00:06:10.528Z,101392.59
2022-12-03T00:08:38.180Z,101390.81
2022-12-03T00:11:06.172Z,101386.28
2022-12-03T00:13:33.040Z,101366.88
2022-12-03T00:15:59.812Z,101385.38
2022-12-03T00:18:26.659Z,101389.66
2022-12-03T00:20:53.631Z,101395.66
2022-12-03T00:23:20.360Z,101396.50
2022-12-03T00:25:47.134Z,101399.09
2022-12-03T00:28:15.210Z,101383.44
2022-12-03T00:30:41.988Z,101385.06
2022-12-03T00:33:09.679Z,101380.44
2022-12-03T00:35:37.659Z,101338.56
2022-12-03T00:38:04.469Z,101357.88
2022-12-03T00:40:33.593Z,101368.16
2022-12-03T00:43:03.080Z,101351.16
2022-12-03T00:45:31.106Z,101301.28
2022-12-03T00:47:57.681Z,101353.03
2022-12-03T00:50:24.297Z,101349.16
2022-12-03T00:52:50.860Z,101364.53
2022-12-03T00:55:18.320Z,101371.25
2022-12-03T00:57:44.895Z,101367.63
2022-12-03T01:00:13.155Z,101356.00
2022-12-03T01:02:41.212Z,101365.03
2022-12-03T01:05:08.740Z,101368.28
2022-12-03T01:07:36.230Z,101320.94
2022-12-03T01:10:04.925Z,101350.50
2022-12-03T01:12:31.792Z,101304.00
2022-12-03T01:14:58.344Z,101369.44
2022-12-03T01:17:26.718Z,101352.84
2022-12-03T01:19:54.796Z,101368.13
2022-12-03T01:22:21.421Z,101336.19
2022-12-03T01:24:48.005Z,101373.25
2022-12-03T01:27:15.012Z,101316.53
2022-12-03T01:29:41.570Z,101358.97
2022-12-03T01:32:09.252Z,101376.94
2022-12-03T01:34:36.129Z,101365.88
2022-12-03T01:37:08.159Z,101326.00
2022-12-03T01:39:35.075Z,101342.25
2022-12-03T01:42:02.474Z,101300.47
2022-12-03T01:44:32.307Z,101373.34
2022-12-03T01:47:04.224Z,101368.94
2022-12-03T01:49:36.701Z,101361.50
2022-12-03T01:52:05.869Z,101242.03
2022-12-03T01:54:39.976Z,101377.59
2022-12-03T01:57:20.343Z,101361.50
2022-12-03T01:59:49.318Z,101332.91
2022-12-03T02:02:19.947Z,101368.94
2022-12-03T02:04:47.016Z,101374.09
2022-12-03T02:07:24.157Z,101345.88
2022-12-03T02:09:54.507Z,101373.91
2022-12-03T02:12:25.640Z,101323.72
2022-12-03T02:14:53.661Z,101366.97
2022-12-03T02:17:20.500Z,101366.88
2022-12-03T02:19:48.282Z,101360.81
2022-12-03T02:22:25.922Z,101366.88
2022-12-03T02:24:59.732Z,101364.31
2022-12-03T02:27:29.072Z,101346.59
2022-12-03T02:29:56.567Z,101365.44
2022-12-03T02:32:23.922Z,101355.84
2022-12-03T02:34:51.449Z,101326.13
2022-12-03T02:37:22.432Z,101279.41
2022-12-03T02:39:51.568Z,101360.63
2022-12-03T02:42:19.574Z,101213.78
2022-12-03T02:44:47.516Z,101343.44
2022-12-03T02:47:14.245Z,101307.56
2022-12-03T02:49:41.713Z,101356.97
2022-12-03T02:52:08.344Z,101348.81
2022-12-03T02:54:35.696Z,101336.38
2022-12-03T02:57:02.568Z,101356.84
2022-12-03T02:59:29.288Z,101354.19
2022-12-03T03:01:58.562Z,101355.16
2022-12-03T03:04:25.980Z,101357.81
2022-12-03T03:06:53.112Z,101352.50
2022-12-03T03:09:21.241Z,101344.47
2022-12-03T03:11:48.491Z,101356.69
2022-12-03T03:14:17.034Z,101324.28
2022-12-03T03:16:44.183Z,101340.50
2022-12-03T03:19:12.425Z,101331.16
2022-12-03T03:21:39.420Z,101331.75
2022-12-03T03:24:08.347Z,101335.16
2022-12-03T03:26:36.040Z,101338.72
2022-12-03T03:29:02.697Z,101329.34
2022-12-03T03:31:29.424Z,101331.75
2022-12-03T03:33:56.509Z,101337.81
2022-12-03T03:36:25.528Z,101333.50
2022-12-03T03:38:52.752Z,101286.28
2022-12-03T03:41:20.638Z,101331.91
2022-12-03T03:43:49.426Z,101313.88
2022-12-03T03:46:18.112Z,101339.47
2022-12-03T03:48:45.428Z,101331.84
2022-12-03T03:51:13.185Z,101335.22
2022-12-03T03:53:45.773Z,101335.34
2022-12-03T03:56:12.553Z,101255.72
2022-12-03T03:58:41.630Z,101311.56
2022-12-03T04:01:11.320Z,101333.13
2022-12-03T04:03:38.276Z,101311.94
2022-12-03T04:06:05.374Z,101341.06
2022-12-03T04:08:32.208Z,101307.72
2022-12-03T04:11:00.225Z,101336.22
2022-12-03T04:13:27.249Z,101332.34
2022-12-03T04:15:54.821Z,101335.78
2022-12-03T04:18:22.760Z,101269.78
2022-12-03T04:20:49.457Z,101332.16
2022-12-03T04:23:16.690Z,101329.56
2022-12-03T04:25:50.844Z,101316.25
2022-12-03T04:28:21.255Z,101338.53
2022-12-03T04:30:47.868Z,101332.47
2022-12-03T04:33:15.088Z,101326.72
2022-12-03T04:35:42.511Z,101299.97
2022-12-03T04:38:09.700Z,101332.25
2022-12-03T04:40:36.680Z,101257.81
2022-12-03T04:43:03.525Z,101295.03
2022-12-03T04:45:31.640Z,101265.53
2022-12-03T04:47:59.489Z,101324.00
2022-12-03T04:50:26.135Z,101324.00
2022-12-03T04:52:52.898Z,101298.56
2022-12-03T04:55:19.813Z,101319.91
2022-12-03T04:57:46.740Z,101318.22
2022-12-03T05:00:14.920Z,101323.50
2022-12-03T05:02:44.204Z,101323.66
2022-12-03T05:05:11.647Z,101304.13
2022-12-03T05:07:39.904Z,101322.59
2022-12-03T05:10:07.762Z,101314.03
2022-12-03T05:12:34.882Z,101321.66
2022-12-03T05:15:01.785Z,101323.41
2022-12-03T05:17:28.568Z,101253.91
2022-12-03T05:19:57.073Z,101308.22
2022-12-03T05:22:23.638Z,101285.06
2022-12-03T05:24:50.369Z,101307.88
2022-12-03T05:27:23.122Z,101298.13
2022-12-03T05:29:51.544Z,101291.25
2022-12-03T05:32:18.599Z,101304.13
2022-12-03T05:34:45.246Z,101297.31
2022-12-03T05:37:13.314Z,101302.41
2022-12-03T05:39:40.076Z,101256.78
2022-12-03T05:42:09.569Z,101295.00
2022-12-03T05:44:36.192Z,101248.22
2022-12-03T05:47:03.832Z,101287.94
2022-12-03T05:49:31.188Z,101292.00
2022-12-03T05:51:58.868Z,101257.97
2022-12-03T05:54:27.858Z,101250.59
2022-12-03T05:56:55.670Z,101253.28
2022-12-03T05:59:22.602Z,101300.13
2022-12-03T06:01:53.829Z,101297.50
2022-12-03T06:04:20.469Z,101254.44
2022-12-03T06:06:48.409Z,101291.59
2022-12-03T06:09:15.120Z,101299.69
2022-12-03T06:11:46.356Z,101293.25
2022-12-03T06:14:13.081Z,101269.63
2022-12-03T06:16:40.989Z,101235.63
2022-12-03T06:19:10.041Z,101255.22
2022-12-03T06:21:37.027Z,101294.91
2022-12-03T06:24:04.868Z,101297.59
2022-12-03T06:26:31.449Z,101297.59
2022-12-03T06:29:00.922Z,101298.44
2022-12-03T06:31:27.838Z,101236.66
2022-12-03T06:33:54.457Z,101265.41
2022-12-03T06:36:23.323Z,101249.19
2022-12-03T06:38:50.209Z,101176.44
2022-12-03T06:41:16.781Z,101283.13
2022-12-03T06:43:43.377Z,101274.00
2022-12-03T06:46:11.415Z,101300.06
2022-12-03T06:48:39.045Z,101301.72
2022-12-03T06:51:06.123Z,101282.13
2022-12-03T06:53:32.820Z,101249.22
2022-12-03T06:56:00.412Z,101154.09
2022-12-03T06:58:27.246Z,101298.97
2022-12-03T07:00:53.947Z,101304.16
2022-12-03T07:03:21.923Z,101232.97
2022-12-03T07:05:49.991Z,101276.13
2022-12-03T07:08:16.794Z,101290.56
2022-12-03T07:10:43.723Z,101179.50
2022-12-03T07:13:10.298Z,101277.63
2022-12-03T07:15:37.034Z,101204.03
2022-12-03T07:18:05.261Z,101301.41
2022-12-03T07:20:33.984Z,101308.22
2022-12-03T07:23:01.746Z,101303.88
2022-12-03T07:25:28.496Z,101303.88
2022-12-03T07:27:56.256Z,101256.38
2022-12-03T07:30:22.977Z,101302.91
2022-12-03T07:32:50.214Z,101286.03
2022-12-03T07:35:17.056Z,101187.69
2022-12-03T07:37:44.975Z,101306.19
2022-12-03T07:40:12.698Z,101248.16
2022-12-03T07:42:39.390Z,101283.09
2022-12-03T07:45:08.760Z,101277.19
2022-12-03T07:47:35.338Z,101314.63
2022-12-03T07:50:01.874Z,101309.50
2022-12-03T07:52:34.025Z,101310.34
2022-12-03T07:55:02.241Z,101306.78
2022-12-03T07:57:30.173Z,101306.72
2022-12-03T07:59:58.096Z,101308.41
2022-12-03T08:02:24.822Z,101310.16
2022-12-03T08:04:55.317Z,101312.75
2022-12-03T08:07:22.349Z,101264.28
2022-12-03T08:09:49.703Z,101221.03
2022-12-03T08:12:24.719Z,101295.38
2022-12-03T08:14:51.718Z,101282.59
2022-12-03T08:17:19.445Z,101276.69
2022-12-03T08:19:47.931Z,101273.28
2022-12-03T08:22:16.167Z,101313.09
2022-12-03T08:24:42.927Z,101233.13
2022-12-03T08:27:17.721Z,101306.69
2022-12-03T08:29:46.188Z,101212.97
2022-12-03T08:32:13.301Z,101306.31
2022-12-03T08:34:43.928Z,101260.44
2022-12-03T08:37:16.300Z,101314.78
2022-12-03T08:39:45.905Z,101310.25
2022-12-03T08:42:16.343Z,101288.78
2022-12-03T08:44:42.986Z,101288.25
2022-12-03T08:47:19.351Z,101301.53
2022-12-03T08:49:51.150Z,101312.50
2022-12-03T08:52:20.472Z,101242.34
2022-12-03T08:54:51.565Z,101262.34
2022-12-03T08:57:27.165Z,101309.69
2022-12-03T08:59:58.175Z,101304.47
2022-12-03T09:02:31.639Z,101293.19
2022-12-03T09:04:59.412Z,101304.78
2022-12-03T09:07:26.052Z,101310.00
2022-12-03T09:09:52.773Z,101295.97
2022-12-03T09:12:19.741Z,101310.22
2022-12-03T09:14:46.578Z,101313.47
2022-12-03T09:17:13.280Z,101304.84
2022-12-03T09:19:45.740Z,101276.97
2022-12-03T09:22:13.120Z,101267.28
2022-12-03T09:24:41.675Z,101306.16
2022-12-03T09:27:08.454Z,101306.66
2022-12-03T09:29:35.429Z,101306.00
2022-12-03T09:32:02.160Z,101304.19
2022-12-03T09:34:28.963Z,101297.28
2022-12-03T09:36:57.053Z,101296.09
2022-12-03T09:39:23.832Z,101278.75
2022-12-03T09:41:50.694Z,101283.81
2022-12-03T09:44:18.448Z,101289.72
2022-12-03T09:46:46.625Z,101248.72
2022-12-03T09:49:16.421Z,101290.41
2022-12-03T09:51:44.582Z,101289.22
2022-12-03T09:54:21.292Z,101292.53
2022-12-03T09:56:48.311Z,101292.25
2022-12-03T09:59:16.282Z,101291.22
2022-12-03T10:01:43.419Z,101197.16
2022-12-03T10:04:10.598Z,101278.34
2022-12-03T10:06:43.971Z,101286.13
2022-12-03T10:09:17.353Z,101280.84
2022-12-03T10:11:44.444Z,101281.47
2022-12-03T10:14:14.152Z,101258.91
2022-12-03T10:16:41.329Z,101270.06
2022-12-03T10:19:16.051Z,101267.34
2022-12-03T10:21:42.713Z,101262.91
2022-12-03T10:24:25.599Z,101265.31
2022-12-03T10:26:55.022Z,101152.09
2022-12-03T10:29:29.666Z,101254.19
2022-12-03T10:32:01.653Z,101217.03
2022-12-03T10:34:29.803Z,101257.00
2022-12-03T10:37:10.994Z,101259.75
2022-12-03T10:40:10.779Z,101248.47
2022-12-03T10:42:39.490Z,101182.44
2022-12-03T10:45:18.064Z,101245.09
2022-12-03T10:48:02.823Z,101239.78
2022-12-03T10:50:29.597Z,101239.94
2022-12-03T10:52:56.171Z,101235.69
2022-12-03T10:55:24.570Z,101205.97
2022-12-03T10:57:51.645Z,101174.75
2022-12-03T11:00:19.838Z,101222.59
2022-12-03T11:02:53.348Z,101222.44
2022-12-03T11:05:26.740Z,101202.59
2022-12-03T11:07:53.953Z,101083.59
2022-12-03T11:10:21.341Z,101217.22
2022-12-03T11:13:21.274Z,101215.56
2022-12-03T11:15:49.372Z,101210.53
2022-12-03T11:18:45.724Z,101191.72
2022-12-03T11:21:13.778Z,101210.34
2022-12-03T11:24:03.293Z,101199.06
2022-12-03T11:27:15.068Z,101197.19
2022-12-03T11:29:58.575Z,101193.50
2022-12-03T11:33:04.136Z,101189.75
2022-12-03T11:36:12.428Z,101164.03
2022-12-03T11:38:53.609Z,101151.13
2022-12-03T11:41:24.069Z,101177.28
2022-12-03T11:44:16.841Z,101188.34
2022-12-03T11:46:45.077Z,101164.81
2022-12-03T11:49:37.634Z,101186.69
2022-12-03T11:52:20.224Z,101185.72
2022-12-03T11:54:52.375Z,101176.59
2022-12-03T11:57:26.579Z,101181.75
2022-12-03T12:00:01.812Z,101180.13
2022-12-03T12:02:38.559Z,101166.81
2022-12-03T12:05:21.978Z,101143.81
2022-12-03T12:07:49.451Z,101160.63
2022-12-03T12:10:39.011Z,101161.44
2022-12-03T12:13:05.850Z,101136.28
2022-12-03T12:15:34.650Z,101158.13
2022-12-03T12:18:35.594Z,101156.19
2022-12-03T12:21:40.061Z,101159.44
2022-12-03T12:24:29.193Z,101147.28
2022-12-03T12:26:57.918Z,101156.97
2022-12-03T12:29:25.395Z,101143.78
2022-12-03T12:31:57.384Z,101146.94
2022-12-03T12:34:24.923Z,101144.94
2022-12-03T12:36:52.044Z,101149.41
2022-12-03T12:39:18.731Z,101137.56
2022-12-03T12:41:48.942Z,101123.97
2022-12-03T12:44:17.099Z,101131.44
2022-12-03T12:46:48.188Z,101133.88
2022-12-03T12:49:15.805Z,100973.53
2022-12-03T12:51:44.446Z,101120.44
2022-12-03T12:54:13.888Z,101124.59
2022-12-03T12:56:42.958Z,101125.19
2022-12-03T12:59:12.408Z,101123.19
2022-12-03T13:01:41.976Z,101085.50
2022-12-03T13:04:11.839Z,101095.69
2022-12-03T13:06:38.961Z,101121.25
2022-12-03T13:09:12.601Z,101116.81
2022-12-03T13:11:41.289Z,101101.41
2022-12-03T13:14:14.830Z,101117.50
2022-12-03T13:16:43.369Z,101117.31
2022-12-03T13:19:24.104Z,101107.06
2022-12-03T13:21:52.302Z,101058.16
2022-12-03T13:24:29.847Z,101104.38
2022-12-03T13:26:57.068Z,101098.25
2022-12-03T13:29:25.579Z,101093.56
2022-12-03T13:31:56.290Z,101095.19
2022-12-03T13:34:24.922Z,101096.19
2022-12-03T13:36:57.510Z,101092.06
2022-12-03T13:39:29.437Z,101092.66
2022-12-03T13:41:56.769Z,101085.81
2022-12-03T13:44:23.345Z,101061.50
2022-12-03T13:46:50.001Z,101087.75
2022-12-03T13:49:21.386Z,100968.16
2022-12-03T13:51:49.011Z,101030.56
2022-12-03T13:54:20.503Z,101068.69
2022-12-03T13:56:48.572Z,101084.72
2022-12-03T13:59:15.353Z,101069.63
2022-12-03T14:01:42.426Z,101085.56
2022-12-03T14:04:09.106Z,101082.97
2022-12-03T14:06:37.224Z,101052.88
2022-12-03T14:09:04.433Z,101082.34
2022-12-03T14:11:31.111Z,101049.28
2022-12-03T14:13:57.637Z,101013.69
2022-12-03T14:16:24.364Z,101048.56
2022-12-03T14:18:51.031Z,101078.84
2022-12-03T14:21:17.743Z,101044.91
2022-12-03T14:23:45.670Z,101075.16
2022-12-03T14:26:13.666Z,101076.16
2022-12-03T14:28:42.810Z,101077.00
2022-12-03T14:31:09.643Z,101063.66
2022-12-03T14:33:36.638Z,100989.75
2022-12-03T14:36:04.017Z,101061.59
2022-12-03T14:38:30.625Z,101067.72
2022-12-03T14:40:58.609Z,101062.63
2022-12-03T14:43:25.131Z,101023.88
2022-12-03T14:45:51.856Z,101040.06
2022-12-03T14:48:20.742Z,101068.94
2022-12-03T14:50:47.321Z,101055.13
2022-12-03T14:53:13.867Z,101058.19
2022-12-03T14:55:40.444Z,101063.31
2022-12-03T14:58:08.327Z,101050.97
2022-12-03T15:00:34.908Z,101069.69
2022-12-03T15:03:01.477Z,101068.16
2022-12-03T15:05:29.003Z,101064.16
2022-12-03T15:07:56.123Z,101049.28
2022-12-03T15:10:24.946Z,101028.00
2022-12-03T15:12:51.444Z,101070.84
2022-12-03T15:15:19.425Z,101070.22
2022-12-03T15:18:01.102Z,101062.25
2022-12-03T15:20:27.704Z,101061.47
2022-12-03T15:22:54.392Z,101077.06
2022-12-03T15:25:22.014Z,101072.03
2022-12-03T15:27:49.900Z,101075.66
2022-12-03T15:30:17.177Z,101073.13
2022-12-03T15:32:45.117Z,101028.22
2022-12-03T15:35:11.853Z,101074.75
2022-12-03T15:37:38.357Z,101079.03
2022-12-03T15:40:06.759Z,101064.44
2022-12-03T15:42:33.299Z,101068.75
2022-12-03T15:44:59.849Z,101078.81
2022-12-03T15:47:26.361Z,101074.66
2022-12-03T15:49:54.611Z,101072.81
2022-12-03T15:52:21.382Z,101064.16
2022-12-03T15:54:47.989Z,101065.31
2022-12-03T15:57:14.529Z,101069.84
2022-12-03T15:59:41.192Z,101067.78
2022-12-03T16:02:07.994Z,101071.28
2022-12-03T16:04:35.462Z,101072.34
2022-12-03T16:07:03.382Z,101071.28
2022-12-03T16:09:30.255Z,101071.44
2022-12-03T16:11:56.806Z,101063.97
2022-12-03T16:14:23.660Z,101081.72
2022-12-03T16:16:50.189Z,101074.19
2022-12-03T16:19:16.782Z,101056.59
2022-12-03T16:21:43.389Z,101062.66
2022-12-03T16:24:11.845Z,101065.81
2022-12-03T16:26:38.506Z,101084.63
2022-12-03T16:29:05.165Z,101030.56
2022-12-03T16:31:32.232Z,101071.88
2022-12-03T16:33:58.972Z,101078.63
2022-12-03T16:36:25.649Z,101077.16
2022-12-03T16:38:52.556Z,101077.09
2022-12-03T16:41:22.154Z,101023.97
2022-12-03T16:43:49.032Z,101064.34
2022-12-03T16:46:16.308Z,101071.03
2022-12-03T16:48:43.383Z,101053.16
2022-12-03T16:51:10.055Z,100888.34
2022-12-03T16:53:36.873Z,101064.97
2022-12-03T16:56:03.989Z,101061.47
2022-12-03T16:58:32.564Z,101064.13
2022-12-03T17:00:59.101Z,100967.31
2022-12-03T17:03:30.522Z,101065.09
2022-12-03T17:06:01.025Z,101063.34
2022-12-03T17:08:27.846Z,101061.59
2022-12-03T17:10:55.786Z,101060.69
2022-12-03T17:13:22.761Z,101026.28
2022-12-03T17:15:51.131Z,101063.22
2022-12-03T17:18:17.829Z,101063.16
2022-12-03T17:20:46.052Z,101043.03
2022-12-03T17:23:12.569Z,101062.16
2022-12-03T17:25:39.308Z,101043.34
2022-12-03T17:28:06.031Z,101044.56
2022-12-03T17:30:32.716Z,101056.66
2022-12-03T17:33:00.758Z,101050.47
2022-12-03T17:35:29.008Z,101047.31
2022-12-03T17:37:55.668Z,101049.63
2022-12-03T17:40:22.369Z,101032.66
2022-12-03T17:42:49.260Z,101049.16
2022-12-03T17:45:16.259Z,101043.03
2022-12-03T17:47:42.793Z,101049.84
2022-12-03T17:50:11.715Z,101043.09
2022-12-03T17:52:38.360Z,100951.97
2022-12-03T17:55:12.933Z,101042.09
2022-12-03T17:57:43.168Z,101042.16
2022-12-03T18:00:10.839Z,101038.59
2022-12-03T18:02:41.802Z,100991.38
2022-12-03T18:05:10.921Z,101032.75
2022-12-03T18:07:37.510Z,101030.75
2022-12-03T18:10:05.573Z,101030.91
2022-12-03T18:12:32.716Z,101014.03
2022-12-03T18:14:59.342Z,100895.94
2022-12-03T18:17:25.877Z,101027.09
2022-12-03T18:19:52.841Z,101025.38
2022-12-03T18:22:21.270Z,100892.34
2022-12-03T18:24:51.507Z,101031.75
2022-12-03T18:27:20.187Z,100995.53
2022-12-03T18:29:46.797Z,101025.00
2022-12-03T18:32:27.758Z,101024.16
2022-12-03T18:34:54.791Z,101028.66
2022-12-03T18:37:25.905Z,101016.47
2022-12-03T18:39:53.094Z,101023.59
2022-12-03T18:42:21.581Z,100984.00
2022-12-03T18:44:50.632Z,101004.19
2022-12-03T18:47:19.128Z,101017.47
2022-12-03T18:49:46.085Z,101011.25
2022-12-03T18:52:14.094Z,101015.56
2022-12-03T18:54:42.507Z,101007.25
2022-12-03T18:57:09.424Z,100987.47
2022-12-03T18:59:36.769Z,100994.31
2022-12-03T19:02:03.946Z,100999.38
2022-12-03T19:04:31.080Z,101012.16
2022-12-03T19:06:57.672Z,101013.00
2022-12-03T19:09:24.312Z,101010.81
2022-12-03T19:11:52.264Z,101017.31
2022-12-03T19:14:18.880Z,100900.78
2022-12-03T19:16:45.493Z,100967.50
2022-12-03T19:19:12.435Z,100996.16
2022-12-03T19:21:39.086Z,100990.25
2022-12-03T19:26:54.627Z,101023.84
2022-12-03T19:29:22.120Z,100997.66
2022-12-03T19:31:50.152Z,101021.56
2022-12-03T19:34:16.824Z,100970.34
2022-12-03T19:36:43.838Z,101018.03
2022-12-03T19:39:10.464Z,101020.47
2022-12-03T19:41:37.125Z,101020.47
2022-12-03T19:44:10.726Z,101003.59
2022-12-03T19:46:37.703Z,101014.78
2022-12-03T19:49:04.325Z,100997.13
2022-12-03T19:51:35.356Z,101010.03
2022-12-03T19:54:03.288Z,101016.69
2022-12-03T19:56:29.914Z,101014.72
2022-12-03T19:58:56.932Z,101019.16
2022-12-03T20:01:26.733Z,101018.38
2022-12-03T20:03:55.619Z,101020.09
2022-12-03T20:06:24.313Z,101017.38
2022-12-03T20:08:52.130Z,101019.78
2022-12-03T20:11:20.510Z,101013.88
2022-12-03T20:13:48.211Z,100976.03
2022-12-03T20:16:16.083Z,101007.13
2022-12-03T20:18:46.857Z,100999.59
2022-12-03T20:21:15.615Z,100981.31
2022-12-03T20:23:42.239Z,101005.94
2022-12-03T20:26:10.017Z,100968.66
2022-12-03T20:28:36.923Z,101007.41
2022-12-03T20:31:06.904Z,101010.63
2022-12-03T20:33:33.657Z,101005.94
2022-12-03T20:36:01.639Z,101009.41
2022-12-03T20:38:28.959Z,101007.72
2022-12-03T20:40:55.471Z,100996.66
2022-12-03T20:43:22.336Z,101004.19
2022-12-03T20:45:48.924Z,100862.69
2022-12-03T20:48:15.579Z,100973.63
2022-12-03T20:50:42.350Z,100895.16
2022-12-03T20:53:24.270Z,100993.91
2022-12-03T20:55:55.445Z,100961.91
2022-12-03T20:58:22.080Z,100988.84
2022-12-03T21:00:48.669Z,100882.38
2022-12-03T21:03:15.295Z,101014.59
2022-12-03T21:05:41.997Z,100995.81
2022-12-03T21:08:10.583Z,100973.88
2022-12-03T21:10:37.673Z,100989.34
2022-12-03T21:13:04.580Z,101001.03
2022-12-03T21:15:31.812Z,100994.47
2022-12-03T21:17:58.448Z,100968.88
2022-12-03T21:20:25.482Z,100999.28
2022-12-03T21:22:52.042Z,100936.50
2022-12-03T21:25:20.274Z,100997.13
2022-12-03T21:27:46.897Z,100921.97
2022-12-03T21:30:14.034Z,100989.09
2022-12-03T21:32:40.579Z,100997.91
2022-12-03T21:35:09.003Z,100961.47
2022-12-03T21:37:35.508Z,100988.31
2022-12-03T21:40:02.722Z,100986.56
2022-12-03T21:42:36.043Z,100989.09
2022-12-03T21:45:04.838Z,100994.38
2022-12-03T21:47:36.861Z,100909.38
2022-12-03T21:50:05.139Z,100993.47
2022-12-03T21:52:31.690Z,100948.59
2022-12-03T21:54:58.292Z,100989.00
2022-12-03T21:57:24.808Z,100978.97
2022-12-03T21:59:53.179Z,100966.94
2022-12-03T22:02:20.094Z,100805.53
2022-12-03T22:04:49.740Z,100977.28
2022-12-03T22:07:16.992Z,100944.94
2022-12-03T22:09:43.806Z,100977.66
2022-12-03T22:12:10.687Z,100988.13
2022-12-03T22:14:37.276Z,100946.78
2022-12-03T22:17:05.708Z,100980.97
2022-12-03T22:19:32.511Z,100989.53
2022-12-03T22:22:03.920Z,100963.22
2022-12-03T22:24:30.539Z,100982.00
2022-12-03T22:26:57.296Z,100983.94
2022-12-03T22:29:24.945Z,100966.72
2022-12-03T22:31:52.154Z,100976.84
2022-12-03T22:34:20.132Z,100917.66
2022-12-03T22:36:46.934Z,100983.75
2022-12-03T22:39:13.551Z,100970.84
2022-12-03T22:41:40.051Z,100973.34
2022-12-03T22:44:06.666Z,100973.50
2022-12-03T22:46:34.026Z,100971.88
2022-12-03T22:49:06.712Z,100966.38
2022-12-03T22:51:35.410Z,100956.88
2022-12-03T22:54:01.989Z,100955.09
2022-12-03T22:56:30.009Z,100949.84
2022-12-03T22:58:56.629Z,100951.03
2022-12-03T23:01:24.966Z,100935.38
2022-12-03T23:03:51.696Z,100915.91
2022-12-03T23:06:20.447Z,100953.81
2022-12-03T23:08:49.225Z,100947.81
2022-12-03T23:11:16.381Z,100901.63
2022-12-03T23:13:43.022Z,100945.03
2022-12-03T23:16:14.335Z,100938.19
2022-12-03T23:18:41.299Z,100945.16
2022-12-03T23:21:08.386Z,100935.31
2022-12-03T23:23:35.252Z,100942.91
2022-12-03T23:26:06.436Z,100870.22
2022-12-03T23:28:36.159Z,100945.16
2022-12-03T23:31:04.258Z,100938.19
2022-12-03T23:33:36.674Z,100899.56
2022-12-03T23:36:05.391Z,100859.38
2022-12-03T23:38:32.210Z,100946.13
2022-12-03T23:41:04.929Z,100948.34
2022-12-03T23:43:31.574Z,100948.09
2022-12-03T23:46:03.062Z,100946.34
2022-12-03T23:48:29.662Z,100943.75
2022-12-03T23:50:56.276Z,100912.16
2022-12-03T23:53:24.409Z,100941.81
2022-12-03T23:55:51.000Z,100942.91
2022-12-03T23:58:19.243Z,100934.25
